createdAt,value
2022-12-12T00:00:47.490Z,15.07
2022-12-12T00:03:17.398Z,15.45
2022-12-12T00:05:48.662Z,15.13
2022-12-12T00:08:22.507Z,15.68
2022-12-12T00:10:54.062Z,14.48
2022-12-12T00:13:25.970Z,15.23
2022-12-12T00:15:55.592Z,15.73
2022-12-12T00:18:24.863Z,15.65
2022-12-12T00:20:56.778Z,16.15
2022-12-12T00:23:27.614Z,16.30
2022-12-12T00:26:04.841Z,19.17
2022-12-12T00:28:33.973Z,16.83
2022-12-12T00:31:05.708Z,16.65
2022-12-12T00:33:37.606Z,17.30
2022-12-12T00:36:07.566Z,17.45
2022-12-12T00:38:39.460Z,19.25
2022-12-12T00:41:14.939Z,20.33
2022-12-12T00:43:48.534Z,18.92
2022-12-12T00:46:23.258Z,17.67
2022-12-12T00:48:58.910Z,16.48
2022-12-12T00:51:28.770Z,17.35
2022-12-12T00:54:02.181Z,16.50
2022-12-12T00:56:34.341Z,16.07
2022-12-12T00:59:06.273Z,16.95
2022-12-12T01:01:44.655Z,15.82
2022-12-12T01:04:15.583Z,15.70
2022-12-12T01:06:43.631Z,15.43
2022-12-12T01:09:17.220Z,15.65
2022-12-12T01:11:49.748Z,16.17
2022-12-12T01:14:21.021Z,15.63
2022-12-12T01:16:55.498Z,14.82
2022-12-12T01:19:24.640Z,14.88
2022-12-12T01:21:56.995Z,13.85
2022-12-12T01:24:33.285Z,15.15
2022-12-12T01:27:01.922Z,14.65
2022-12-12T01:29:36.527Z,15.15
2022-12-12T01:32:06.066Z,14.57
2022-12-12T01:34:35.944Z,14.25
2022-12-12T01:37:07.126Z,15.32
2022-12-12T01:39:34.611Z,14.00
2022-12-12T01:42:07.053Z,14.13
2022-12-12T01:44:47.629Z,13.10
2022-12-12T01:47:22.621Z,13.65
2022-12-12T01:50:07.910Z,13.63
2022-12-12T01:52:51.605Z,14.95
2022-12-12T01:55:34.833Z,15.20
2022-12-12T01:58:08.178Z,13.07
2022-12-12T02:00:39.194Z,14.43
2022-12-12T02:03:14.127Z,13.82
2022-12-12T02:08:49.185Z,14.98
2022-12-12T02:11:19.814Z,15.30
2022-12-12T02:13:55.417Z,16.10
2022-12-12T02:16:45.225Z,15.63
2022-12-12T02:19:43.751Z,16.52
2022-12-12T02:22:51.927Z,15.65
2022-12-12T02:25:54.619Z,16.67
2022-12-12T02:28:34.750Z,16.70
2022-12-12T02:31:29.039Z,16.20
2022-12-12T02:34:04.799Z,16.50
2022-12-12T02:37:03.003Z,18.40
2022-12-12T02:40:02.062Z,17.23
2022-12-12T02:43:35.406Z,16.98
2022-12-12T02:46:44.815Z,17.90
2022-12-12T02:49:54.246Z,17.98
2022-12-12T02:52:25.329Z,18.42
2022-12-12T02:54:56.318Z,17.20
2022-12-12T02:57:27.411Z,18.08
2022-12-12T03:00:16.775Z,20.02
2022-12-12T03:03:30.875Z,18.23
2022-12-12T03:06:55.494Z,16.45
2022-12-12T03:09:45.382Z,16.52
2022-12-12T03:13:01.679Z,18.25
2022-12-12T03:16:11.879Z,18.48
2022-12-12T03:19:07.543Z,18.13
2022-12-12T03:21:52.904Z,18.38
2022-12-12T03:25:00.547Z,17.58
2022-12-12T03:27:56.779Z,19.33
2022-12-12T03:30:28.445Z,19.02
2022-12-12T03:33:20.829Z,18.58
2022-12-12T03:36:37.158Z,18.25
2022-12-12T03:39:15.962Z,17.55
2022-12-12T03:41:54.151Z,18.70
2022-12-12T03:44:38.157Z,18.65
2022-12-12T03:47:33.011Z,18.40
2022-12-12T03:50:24.200Z,17.42
2022-12-12T03:53:11.978Z,17.27
2022-12-12T03:55:58.128Z,18.73
2022-12-12T03:58:48.506Z,17.63
2022-12-12T04:01:24.722Z,17.70
2022-12-12T04:04:28.609Z,18.50
2022-12-12T04:10:16.223Z,17.85
2022-12-12T04:13:33.046Z,18.48
2022-12-12T04:16:28.433Z,19.85
2022-12-12T04:19:44.762Z,21.60
2022-12-12T04:22:42.258Z,21.75
2022-12-12T04:25:58.560Z,20.33
2022-12-12T04:28:52.356Z,20.48
2022-12-12T04:31:29.210Z,20.98
2022-12-12T04:34:04.078Z,19.92
2022-12-12T04:36:58.871Z,18.92
2022-12-12T04:39:31.534Z,17.25
2022-12-12T04:42:02.163Z,17.65
2022-12-12T04:44:35.688Z,14.45
2022-12-12T04:47:12.362Z,14.00
2022-12-12T04:49:44.725Z,15.02
2022-12-12T04:52:19.654Z,15.98
2022-12-12T04:55:06.406Z,15.82
2022-12-12T04:57:53.090Z,15.88
2022-12-12T05:00:21.697Z,14.45
2022-12-12T05:03:31.095Z,14.18
2022-12-12T05:06:12.369Z,12.77
2022-12-12T05:08:54.649Z,13.90
2022-12-12T05:11:24.184Z,16.77
2022-12-12T05:13:57.415Z,13.90
2022-12-12T05:16:38.698Z,13.95
2022-12-12T05:19:06.903Z,13.25
2022-12-12T05:21:38.042Z,12.45
2022-12-12T05:24:06.808Z,12.70
2022-12-12T05:26:52.481Z,12.18
2022-12-12T05:29:22.899Z,11.85
2022-12-12T05:31:54.073Z,11.65
2022-12-12T05:34:23.384Z,11.35
2022-12-12T05:36:53.735Z,12.40
2022-12-12T05:39:23.467Z,11.82
2022-12-12T05:41:55.837Z,11.80
2022-12-12T05:44:28.363Z,11.07
2022-12-12T05:46:56.820Z,12.48
2022-12-12T05:49:27.450Z,11.65
2022-12-12T05:51:55.300Z,12.00
2022-12-12T05:54:22.398Z,12.50
2022-12-12T05:56:52.762Z,12.07
2022-12-12T05:59:25.784Z,14.00
2022-12-12T06:01:56.314Z,12.73
2022-12-12T06:04:26.131Z,12.63
2022-12-12T06:07:01.425Z,10.57
2022-12-12T06:09:33.615Z,12.10
2022-12-12T06:12:04.274Z,12.48
2022-12-12T06:14:36.575Z,13.13
2022-12-12T06:17:06.291Z,13.10
2022-12-12T06:19:37.702Z,12.52
2022-12-12T06:22:08.146Z,11.75
2022-12-12T06:24:38.326Z,12.60
2022-12-12T06:27:07.032Z,12.98
2022-12-12T06:29:38.521Z,14.30
2022-12-12T06:32:11.058Z,13.18
2022-12-12T06:34:43.579Z,13.52
2022-12-12T06:37:17.011Z,13.25
2022-12-12T06:39:47.344Z,9.68
2022-12-12T06:42:16.919Z,14.02
2022-12-12T06:44:46.065Z,12.40
2022-12-12T06:47:18.019Z,12.32
2022-12-12T06:49:48.229Z,12.88
2022-12-12T06:52:19.223Z,12.15
2022-12-12T06:54:53.619Z,13.82
2022-12-12T06:57:25.819Z,12.38
2022-12-12T06:59:56.619Z,11.57
2022-12-12T07:02:29.941Z,14.02
2022-12-12T07:07:31.655Z,14.38
2022-12-12T07:10:03.632Z,14.23
2022-12-12T07:12:34.697Z,13.27
2022-12-12T07:15:09.411Z,15.43
2022-12-12T07:17:40.662Z,13.80
2022-12-12T07:20:11.306Z,12.55
2022-12-12T07:22:41.833Z,14.60
2022-12-12T07:25:12.073Z,13.18
2022-12-12T07:27:41.998Z,11.80
2022-12-12T07:30:17.519Z,13.57
2022-12-12T07:32:47.869Z,11.65
2022-12-12T07:35:18.862Z,13.38
2022-12-12T07:37:48.029Z,12.27
2022-12-12T07:40:16.958Z,12.95
2022-12-12T07:42:49.767Z,12.85
2022-12-12T07:45:19.772Z,12.60
2022-12-12T07:47:50.235Z,13.70
2022-12-12T07:50:20.379Z,14.00
2022-12-12T07:52:51.588Z,12.73
2022-12-12T07:55:20.314Z,13.30
2022-12-12T07:57:55.513Z,12.07
2022-12-12T08:00:25.445Z,13.90
2022-12-12T08:02:57.995Z,13.32
2022-12-12T08:05:29.590Z,14.15
2022-12-12T08:07:59.369Z,12.50
2022-12-12T08:10:28.397Z,13.23
2022-12-12T08:12:59.611Z,15.38
2022-12-12T08:15:29.634Z,13.98
2022-12-12T08:17:57.108Z,12.95
2022-12-12T08:20:26.774Z,14.20
2022-12-12T08:22:56.602Z,12.65
2022-12-12T08:25:27.771Z,14.32
2022-12-12T08:28:04.221Z,13.05
2022-12-12T08:30:38.786Z,14.35
2022-12-12T08:33:08.343Z,14.27
2022-12-12T08:35:37.322Z,14.05
2022-12-12T08:38:06.786Z,12.95
2022-12-12T08:40:38.816Z,13.75
2022-12-12T08:43:19.173Z,12.77
2022-12-12T08:45:50.093Z,13.80
2022-12-12T08:48:18.590Z,12.60
2022-12-12T08:50:47.027Z,12.95
2022-12-12T08:53:17.727Z,13.48
2022-12-12T08:55:47.395Z,13.48
2022-12-12T08:58:24.237Z,13.77
2022-12-12T09:00:55.145Z,13.18
2022-12-12T09:03:29.464Z,14.05
2022-12-12T09:06:00.766Z,14.32
2022-12-12T09:08:28.770Z,14.77
2022-12-12T09:10:58.453Z,14.68
2022-12-12T09:13:30.818Z,15.43
2022-12-12T09:15:59.527Z,15.55
2022-12-12T09:18:27.592Z,16.05
2022-12-12T09:20:58.599Z,16.08
2022-12-12T09:23:31.850Z,16.17
2022-12-12T09:26:12.587Z,13.90
2022-12-12T09:28:42.645Z,15.13
2022-12-12T09:31:17.766Z,13.50
2022-12-12T09:33:50.553Z,13.18
2022-12-12T09:36:19.035Z,14.65
2022-12-12T09:38:50.599Z,13.98
2022-12-12T09:41:26.732Z,13.95
2022-12-12T09:44:19.734Z,13.73
2022-12-12T09:47:00.618Z,14.00
2022-12-12T09:49:44.386Z,14.95
2022-12-12T09:52:19.950Z,14.93
2022-12-12T09:54:50.648Z,14.65
2022-12-12T09:58:02.573Z,13.35
2022-12-12T10:00:38.011Z,14.60
2022-12-12T10:03:33.235Z,13.50
2022-12-12T10:09:25.252Z,12.68
2022-12-12T10:11:56.698Z,12.52
2022-12-12T10:15:09.394Z,11.88
2022-12-12T10:17:49.849Z,12.30
2022-12-12T10:20:23.787Z,13.45
2022-12-12T10:23:16.933Z,13.50
2022-12-12T10:26:00.762Z,13.52
2022-12-12T10:28:31.234Z,13.52
2022-12-12T10:31:21.854Z,13.25
2022-12-12T10:34:35.724Z,11.65
2022-12-12T10:37:06.350Z,12.30
2022-12-12T10:40:02.490Z,13.95
2022-12-12T10:42:57.512Z,12.60
2022-12-12T10:45:34.461Z,12.27
2022-12-12T10:48:05.061Z,13.10
2022-12-12T10:50:39.140Z,11.70
2022-12-12T10:53:14.034Z,12.18
2022-12-12T10:55:58.787Z,12.25
2022-12-12T11:01:44.894Z,11.77
2022-12-12T11:04:26.756Z,11.48
2022-12-12T11:06:57.709Z,12.50
2022-12-12T11:09:34.042Z,12.52
2022-12-12T11:12:21.961Z,12.68
2022-12-12T11:15:16.834Z,11.77
2022-12-12T11:17:48.022Z,13.52
2022-12-12T11:20:20.989Z,13.43
2022-12-12T11:22:59.136Z,12.20
2022-12-12T11:25:32.773Z,12.02
2022-12-12T11:28:06.861Z,12.20
2022-12-12T11:30:39.616Z,12.43
2022-12-12T11:33:12.096Z,13.50
2022-12-12T11:35:47.766Z,11.27
2022-12-12T11:38:27.102Z,11.93
2022-12-12T11:41:14.901Z,10.85
2022-12-12T11:43:50.685Z,11.70
2022-12-12T11:46:21.882Z,12.27
2022-12-12T11:48:59.899Z,12.07
2022-12-12T11:51:45.170Z,14.90
2022-12-12T11:54:21.010Z,12.77
2022-12-12T11:57:18.389Z,13.13
2022-12-12T12:00:23.055Z,13.82
2022-12-12T12:03:23.899Z,11.88
2022-12-12T12:06:21.833Z,12.52
2022-12-12T12:08:57.123Z,11.68
2022-12-12T12:11:59.804Z,11.50
2022-12-12T12:15:01.657Z,12.18
2022-12-12T12:17:40.496Z,13.15
2022-12-12T12:20:48.287Z,13.88
2022-12-12T12:23:25.496Z,12.00
2022-12-12T12:26:46.662Z,13.07
2022-12-12T12:30:16.354Z,12.43
2022-12-12T12:33:12.410Z,12.10
2022-12-12T12:36:19.277Z,12.77
2022-12-12T12:39:37.190Z,13.38
2022-12-12T12:42:49.405Z,12.20
2022-12-12T12:45:27.576Z,13.25
2022-12-12T12:48:42.042Z,12.57
2022-12-12T12:51:52.293Z,13.23
2022-12-12T12:54:50.213Z,12.55
2022-12-12T12:57:40.882Z,12.38
2022-12-12T13:00:35.962Z,12.40
2022-12-12T13:03:17.642Z,12.30
2022-12-12T13:05:56.882Z,12.68
2022-12-12T13:08:34.209Z,13.50
2022-12-12T13:11:29.692Z,12.73
2022-12-12T13:14:04.772Z,13.73
2022-12-12T13:16:38.704Z,11.80
2022-12-12T13:19:36.253Z,12.85
2022-12-12T13:22:49.018Z,12.65
2022-12-12T13:25:33.826Z,15.73
2022-12-12T13:31:12.943Z,14.57
2022-12-12T13:34:00.203Z,11.82
2022-12-12T13:36:39.339Z,12.90
2022-12-12T13:39:30.886Z,11.85
2022-12-12T13:42:15.368Z,11.70
2022-12-12T13:44:57.977Z,11.88
2022-12-12T13:47:30.422Z,12.23
2022-12-12T13:50:13.312Z,11.27
2022-12-12T13:52:45.428Z,12.90
2022-12-12T13:55:20.214Z,12.52
2022-12-12T13:58:18.815Z,12.20
2022-12-12T14:00:51.298Z,11.90
2022-12-12T14:03:46.368Z,12.10
2022-12-12T14:08:57.025Z,12.00
2022-12-12T14:11:33.687Z,13.20
2022-12-12T14:14:08.798Z,13.15
2022-12-12T14:16:40.845Z,12.18
2022-12-12T14:19:26.547Z,12.55
2022-12-12T14:21:56.994Z,12.98
2022-12-12T14:24:41.794Z,12.30
2022-12-12T14:27:16.092Z,13.10
2022-12-12T14:29:46.005Z,15.02
2022-12-12T14:32:21.527Z,14.32
2022-12-12T14:35:14.782Z,12.43
2022-12-12T14:37:49.892Z,12.38
2022-12-12T14:40:35.230Z,13.93
2022-12-12T14:43:20.264Z,9.80
2022-12-12T14:45:59.410Z,13.93
2022-12-12T14:48:36.815Z,14.02
2022-12-12T14:51:31.318Z,13.43
2022-12-12T14:54:03.120Z,13.30
2022-12-12T14:56:36.795Z,14.73
2022-12-12T14:59:29.277Z,12.45
2022-12-12T15:02:26.465Z,14.13
2022-12-12T15:05:05.019Z,15.63
2022-12-12T15:07:39.326Z,13.88
2022-12-12T15:10:29.588Z,14.52
2022-12-12T15:12:59.707Z,13.63
2022-12-12T15:15:34.001Z,14.95
2022-12-12T15:18:02.874Z,14.48
2022-12-12T15:20:32.487Z,15.07
2022-12-12T15:23:06.208Z,14.75
2022-12-12T15:25:47.329Z,16.73
2022-12-12T15:28:21.085Z,16.98
2022-12-12T15:30:53.509Z,19.05
2022-12-12T15:33:26.379Z,18.75
2022-12-12T15:36:07.798Z,19.10
2022-12-12T15:38:37.076Z,18.60
2022-12-12T15:41:13.330Z,16.60
2022-12-12T15:43:44.104Z,17.70
2022-12-12T15:46:15.494Z,18.40
2022-12-12T15:48:44.436Z,19.63
2022-12-12T15:51:21.034Z,18.67
2022-12-12T15:53:56.315Z,19.08
2022-12-12T15:56:29.270Z,20.55
2022-12-12T15:59:17.132Z,21.25
2022-12-12T16:01:44.584Z,21.33
2022-12-12T16:04:14.954Z,21.38
2022-12-12T16:06:47.482Z,19.38
2022-12-12T16:09:21.256Z,18.83
2022-12-12T16:11:52.142Z,22.02
2022-12-12T16:14:41.640Z,19.55
2022-12-12T16:17:28.134Z,17.98
2022-12-12T16:20:15.821Z,18.00
2022-12-12T16:22:54.397Z,20.23
2022-12-12T16:25:46.703Z,19.17
2022-12-12T16:28:28.233Z,22.80
2022-12-12T16:31:04.898Z,18.92
2022-12-12T16:33:40.134Z,18.75
2022-12-12T16:36:10.875Z,18.30
2022-12-12T16:38:40.416Z,20.90
2022-12-12T16:41:28.503Z,21.33
2022-12-12T16:43:57.895Z,23.15
2022-12-12T16:46:32.558Z,23.67
2022-12-12T16:49:07.370Z,29.25
2022-12-12T16:51:43.623Z,29.20
2022-12-12T16:54:17.237Z,27.58
2022-12-12T16:56:53.026Z,26.45
2022-12-12T16:59:26.527Z,28.02
2022-12-12T17:01:54.456Z,30.00
2022-12-12T17:04:24.007Z,30.92
2022-12-12T17:06:54.160Z,26.77
2022-12-12T17:09:29.793Z,24.58
2022-12-12T17:12:02.654Z,24.58
2022-12-12T17:14:31.276Z,27.33
2022-12-12T17:16:58.532Z,28.13
2022-12-12T17:19:29.855Z,36.85
2022-12-12T17:21:58.590Z,40.90
2022-12-12T17:24:31.141Z,38.92
2022-12-12T17:26:59.483Z,33.28
2022-12-12T17:29:30.410Z,37.83
2022-12-12T17:31:59.633Z,35.90
2022-12-12T17:34:32.413Z,37.30
2022-12-12T17:36:59.558Z,36.53
2022-12-12T17:39:30.382Z,40.90
2022-12-12T17:42:01.045Z,43.17
2022-12-12T17:44:30.358Z,43.30
2022-12-12T17:46:57.450Z,44.38
2022-12-12T17:49:28.388Z,44.15
2022-12-12T17:51:59.800Z,42.65
2022-12-12T17:54:31.837Z,45.85
2022-12-12T17:57:00.624Z,45.92
2022-12-12T17:59:31.507Z,44.83
2022-12-12T18:02:00.746Z,41.42
2022-12-12T18:04:34.167Z,39.72
2022-12-12T18:07:05.057Z,43.42
2022-12-12T18:09:38.423Z,43.25
2022-12-12T18:12:09.626Z,43.30
2022-12-12T18:14:39.218Z,43.92
2022-12-12T18:17:07.574Z,45.70
2022-12-12T18:19:37.991Z,45.00
2022-12-12T18:22:09.045Z,45.67
2022-12-12T18:24:37.014Z,44.70
2022-12-12T18:27:07.149Z,45.10
2022-12-12T18:29:34.446Z,42.70
2022-12-12T18:32:05.045Z,40.80
2022-12-12T18:34:37.061Z,39.03
2022-12-12T18:37:06.803Z,44.75
2022-12-12T18:39:38.644Z,43.92
2022-12-12T18:42:10.018Z,42.28
2022-12-12T18:44:39.976Z,39.95
2022-12-12T18:47:08.579Z,38.67
2022-12-12T18:49:40.993Z,38.78
2022-12-12T18:52:08.318Z,42.22
2022-12-12T18:54:39.297Z,44.30
2022-12-12T18:57:07.856Z,44.40
2022-12-12T18:59:36.251Z,45.17
2022-12-12T19:02:09.735Z,44.95
2022-12-12T19:04:41.050Z,45.65
2022-12-12T19:07:13.391Z,44.08
2022-12-12T19:09:44.447Z,44.00
2022-12-12T19:12:14.104Z,42.63
2022-12-12T19:15:07.919Z,43.42
2022-12-12T19:17:32.935Z,43.90
2022-12-12T19:20:02.700Z,47.53
2022-12-12T19:22:47.057Z,43.50
2022-12-12T19:25:19.213Z,47.97
2022-12-12T19:27:47.485Z,49.63
2022-12-12T19:30:18.605Z,45.70
2022-12-12T19:32:51.281Z,44.47
2022-12-12T19:35:19.302Z,45.03
2022-12-12T19:37:46.569Z,44.28
2022-12-12T19:40:20.538Z,44.58
2022-12-12T19:42:51.143Z,44.10
2022-12-12T19:45:22.223Z,43.92
2022-12-12T19:47:52.505Z,45.33
2022-12-12T19:50:27.732Z,42.65
2022-12-12T19:52:59.183Z,39.97
2022-12-12T19:55:31.407Z,40.95
2022-12-12T19:58:04.907Z,41.03
2022-12-12T20:00:32.686Z,37.97
2022-12-12T20:03:03.003Z,40.28
2022-12-12T20:05:32.655Z,38.85
2022-12-12T20:08:00.701Z,38.95
2022-12-12T20:10:32.331Z,36.78
2022-12-12T20:13:02.520Z,38.53
2022-12-12T20:15:30.832Z,38.55
2022-12-12T20:18:01.042Z,37.00
2022-12-12T20:20:30.579Z,36.30
2022-12-12T20:23:03.585Z,36.40
2022-12-12T20:25:33.924Z,36.15
2022-12-12T20:28:03.377Z,36.30
2022-12-12T20:30:32.512Z,36.50
2022-12-12T20:33:00.611Z,34.38
2022-12-12T20:35:31.702Z,34.45
2022-12-12T20:38:02.994Z,36.85
2022-12-12T20:40:34.254Z,36.47
2022-12-12T20:43:05.847Z,35.53
2022-12-12T20:45:41.351Z,35.30
2022-12-12T20:48:08.571Z,34.33
2022-12-12T20:50:38.280Z,38.88
2022-12-12T20:53:05.694Z,40.40
2022-12-12T20:55:39.625Z,38.97
2022-12-12T20:58:09.225Z,38.28
2022-12-12T21:00:41.191Z,35.72
2022-12-12T21:03:15.390Z,37.65
2022-12-12T21:05:45.913Z,38.47
2022-12-12T21:08:14.586Z,38.15
2022-12-12T21:10:43.755Z,35.20
2022-12-12T21:13:14.331Z,37.35
2022-12-12T21:15:44.455Z,33.70
2022-12-12T21:18:13.769Z,36.55
2022-12-12T21:20:48.324Z,32.88
2022-12-12T21:23:21.186Z,32.30
2022-12-12T21:25:51.350Z,33.92
2022-12-12T21:28:18.714Z,32.65
2022-12-12T21:30:46.985Z,32.08
2022-12-12T21:33:15.979Z,31.63
2022-12-12T21:35:46.602Z,30.10
2022-12-12T21:38:18.602Z,31.23
2022-12-12T21:40:47.181Z,33.90
2022-12-12T21:43:15.751Z,32.78
2022-12-12T21:45:46.259Z,31.67
2022-12-12T21:48:15.495Z,31.65
2022-12-12T21:50:49.005Z,33.63
2022-12-12T21:53:39.090Z,30.80
2022-12-12T21:56:19.875Z,31.50
2022-12-12T21:58:58.243Z,32.75
2022-12-12T22:01:25.840Z,30.60
2022-12-12T22:03:58.626Z,30.27
2022-12-12T22:06:49.317Z,31.83
2022-12-12T22:09:20.176Z,34.92
2022-12-12T22:12:03.263Z,32.17
2022-12-12T22:14:34.311Z,32.97
2022-12-12T22:17:06.705Z,32.80
2022-12-12T22:19:35.869Z,31.00
2022-12-12T22:22:06.598Z,30.35
2022-12-12T22:24:34.740Z,28.00
2022-12-12T22:27:06.525Z,28.02
2022-12-12T22:29:38.109Z,27.85
2022-12-12T22:32:05.479Z,28.70
2022-12-12T22:34:38.443Z,27.08
2022-12-12T22:37:07.997Z,25.08
2022-12-12T22:39:35.456Z,25.52
2022-12-12T22:42:02.758Z,30.42
2022-12-12T22:44:32.934Z,27.40
2022-12-12T22:47:00.798Z,27.70
2022-12-12T22:49:30.975Z,27.95
2022-12-12T22:52:02.230Z,24.70
2022-12-12T22:54:34.747Z,25.30
2022-12-12T22:57:06.385Z,27.80
2022-12-12T22:59:33.699Z,23.52
2022-12-12T23:02:05.699Z,23.92
2022-12-12T23:04:34.200Z,23.55
2022-12-12T23:07:01.601Z,23.25
2022-12-12T23:09:31.560Z,23.88
2022-12-12T23:12:01.595Z,25.00
2022-12-12T23:14:32.898Z,24.13
2022-12-12T23:17:01.377Z,26.33
2022-12-12T23:19:29.972Z,27.60
2022-12-12T23:21:59.436Z,27.88
2022-12-12T23:24:29.710Z,30.92
2022-12-12T23:27:01.306Z,32.30
2022-12-12T23:29:28.990Z,33.03
2022-12-12T23:31:59.123Z,29.15
2022-12-12T23:34:31.951Z,29.65
2022-12-12T23:36:59.908Z,33.20
2022-12-12T23:39:32.263Z,32.08
2022-12-12T23:42:02.071Z,28.33
2022-12-12T23:44:31.483Z,26.05
2022-12-12T23:47:01.361Z,29.27
2022-12-12T23:49:31.423Z,29.90
2022-12-12T23:52:02.195Z,30.85
2022-12-12T23:54:37.633Z,32.40
2022-12-12T23:57:06.272Z,29.58
2022-12-12T23:59:37.750Z,30.92
